Monterey, Massachusetts
Current Conditions -  °F | °C
As of 11:54 PM on Friday 31 Oct 2014 (Local Time) from KPSF Reporting Station
Light Rain Light Rain  
Wind Chill: 41°   Ceiling: 4700
Heat Index: 41°   Visibility: 10mi
Dew Point: 38°   Wind: 3mph
Humidity: 89%   Direction: 70°ENE
Pressure: 29.94"   Gusts: NA
Location:  42.18°N, 73.21°W
Report Text: KPSF 010354Z AUTO 07003KT 10SM -RA SCT018 OVC047 05/03 A2994 RMK AO2 SLP137 P0001 T00500033
Loading
Personal Weather Stations






























Interactive Weather Map
Tropical Storm Tracking
New forecast layout! Learn more

10-Day Weather Forecast

Advertisements
Track Severe Weather on mobile